Time;durP1;ratioP1;P1;durP2;ratioP2;P2;SDS_P1;SDS_P2;PMS_P1;PMS_P2;Temp;Humidity;BMP_temperature;BMP_pressure;BME280_temperature;BME280_humidity;BME280_pressure;Samples;Min_cycle;Max_cycle;Signal;HPM_P1;HPM_P2
2021/12/22 00:01:31;;;;;;;23.17;14.30;;;-2.80;99.90;;;;;;4940114;29;20058;-82
2021/12/22 00:03:57;;;;;;;25.77;14.40;;;-2.30;99.90;;;;;;4939870;29;20043;-82
2021/12/22 00:06:25;;;;;;;24.27;14.35;;;-2.90;99.90;;;;;;4939862;29;20102;-82
2021/12/22 00:08:52;;;;;;;24.70;14.20;;;-2.90;99.90;;;;;;4956099;29;20043;-82
2021/12/22 00:11:18;;;;;;;27.33;14.35;;;-2.90;99.90;;;;;;4955077;29;20039;-82
2021/12/22 00:13:44;;;;;;;23.88;14.05;;;-2.90;99.90;;;;;;4939556;29;20039;-82
2021/12/22 00:16:10;;;;;;;25.45;14.48;;;-2.90;99.90;;;;;;4955696;29;20134;-82
2021/12/22 00:18:36;;;;;;;24.13;14.55;;;-3.00;99.90;;;;;;4939690;29;20047;-82
2021/12/22 00:21:02;;;;;;;22.25;13.65;;;-3.00;99.90;;;;;;4971301;28;20414;-82
2021/12/22 00:23:28;;;;;;;22.75;14.32;;;-3.00;99.90;;;;;;4971576;28;20412;-82
2021/12/22 00:25:54;;;;;;;23.75;13.18;;;-3.00;99.90;;;;;;4938675;29;20061;-82
2021/12/22 00:28:20;;;;;;;21.92;13.57;;;-3.00;99.90;;;;;;4955695;28;20402;-82
2021/12/22 00:30:46;;;;;;;27.25;14.63;;;-3.00;99.90;;;;;;4955287;29;20050;-82
2021/12/22 00:33:13;;;;;;;23.83;13.60;;;-3.10;99.90;;;;;;4939493;29;20047;-82
2021/12/22 00:35:45;;;;;;;25.55;14.00;;;-3.10;99.90;;;;;;4939130;29;20047;-82
2021/12/22 00:38:21;;;;;;;19.35;10.43;;;-3.10;99.90;;;;;;4938662;29;20069;-82
2021/12/22 00:40:48;;;;;;;24.20;13.93;;;-3.10;99.90;;;;;;4938147;29;20039;-82
2021/12/22 00:43:15;;;;;;;23.17;13.85;;;-3.10;99.90;;;;;;4971005;28;20529;-82
2021/12/22 00:45:42;;;;;;;25.95;13.63;;;-3.10;99.90;;;;;;4939330;29;20398;-82
2021/12/22 00:48:09;;;;;;;24.15;13.93;;;-3.10;99.90;;;;;;4955353;29;20458;-82
2021/12/22 00:50:38;;;;;;;24.00;13.38;;;-3.10;99.90;;;;;;4954956;29;20035;-82
2021/12/22 00:53:05;;;;;;;23.58;13.60;;;-3.10;99.90;;;;;;4939109;29;20126;-81
2021/12/22 00:55:31;;;;;;;22.35;13.27;;;-3.10;99.90;;;;;;4922243;29;20070;-81
2021/12/22 00:57:57;;;;;;;22.42;13.75;;;-3.10;99.90;;;;;;4955088;28;20411;-81
2021/12/22 01:00:25;;;;;;;22.00;12.25;;;-3.10;99.90;;;;;;4954751;29;20047;-81
2021/12/22 01:02:51;;;;;;;21.25;12.82;;;-3.00;99.90;;;;;;4952123;28;20134;-81
2021/12/22 01:05:17;;;;;;;21.42;12.65;;;-3.20;99.90;;;;;;4955205;29;20514;-81
2021/12/22 01:07:45;;;;;;;21.85;13.25;;;-3.20;99.90;;;;;;4939340;29;20066;-81
2021/12/22 01:10:12;;;;;;;22.67;13.27;;;-3.20;99.90;;;;;;4938304;29;20035;-81
2021/12/22 01:12:38;;;;;;;24.45;14.15;;;-3.20;99.90;;;;;;4923390;29;20398;-81
2021/12/22 01:15:07;;;;;;;26.42;15.05;;;-2.50;99.90;;;;;;4923012;29;20046;-81
2021/12/22 01:17:43;;;;;;;21.63;13.10;;;-3.20;99.90;;;;;;4938977;29;20035;-81
2021/12/22 01:20:23;;;;;;;23.25;13.85;;;-3.20;99.90;;;;;;4923892;29;20105;-81
2021/12/22 01:22:50;;;;;;;23.33;13.75;;;-3.20;99.90;;;;;;4932626;29;20040;-81
2021/12/22 01:25:19;;;;;;;21.17;13.20;;;-3.20;99.90;;;;;;4915456;29;20074;-81
2021/12/22 01:27:45;;;;;;;22.50;14.02;;;-3.20;99.90;;;;;;4916786;29;20534;-81
2021/12/22 01:30:15;;;;;;;23.25;14.10;;;-3.20;99.90;;;;;;4916525;29;20076;-81
2021/12/22 01:32:42;;;;;;;21.27;13.30;;;-3.30;99.90;;;;;;4932713;29;20095;-81
2021/12/22 01:35:11;;;;;;;23.27;13.80;;;-3.30;99.90;;;;;;4904429;29;20043;-81
2021/12/22 01:37:37;;;;;;;25.08;14.52;;;-3.30;99.90;;;;;;4935668;29;20530;-81
2021/12/22 01:40:05;;;;;;;25.95;14.63;;;-3.30;99.90;;;;;;4903779;29;20043;-81
2021/12/22 01:42:31;;;;;;;22.70;14.15;;;-3.30;99.90;;;;;;4934745;29;20058;-81
2021/12/22 01:50:35;;;;;;;26.20;15.27;;;-3.30;99.90;;;;;;4937700;29;20098;-81
2021/12/22 01:53:20;;;;;;;25.60;15.02;;;-3.40;99.90;;;;;;4935423;29;20495;-81
2021/12/22 01:55:59;;;;;;;27.67;15.52;;;-3.40;99.90;;;;;;4938168;29;20490;-81
2021/12/22 01:58:37;;;;;;;31.83;16.75;;;-3.50;99.90;;;;;;4923348;29;20048;-81
2021/12/22 02:01:05;;;;;;;24.80;15.15;;;-3.30;99.90;;;;;;4922815;29;20059;-81
2021/12/22 02:03:31;;;;;;;27.77;16.52;;;-3.50;99.90;;;;;;4939056;29;20607;-81
2021/12/22 02:05:57;;;;;;;28.05;16.20;;;-3.60;99.90;;;;;;4923091;29;20132;-81
2021/12/22 02:08:23;;;;;;;26.73;15.35;;;-3.60;99.90;;;;;;4891889;29;20206;-81
2021/12/22 02:10:49;;;;;;;24.45;14.73;;;-3.60;99.90;;;;;;4938274;29;20040;-81
2021/12/22 02:13:22;;;;;;;26.75;15.18;;;-3.60;99.90;;;;;;4938926;29;20048;-82
2021/12/22 02:15:48;;;;;;;25.90;15.30;;;-3.60;99.90;;;;;;4922930;29;20116;-81
2021/12/22 02:18:19;;;;;;;23.20;14.65;;;-3.60;99.90;;;;;;4939217;29;20043;-81
2021/12/22 02:20:50;;;;;;;25.90;15.05;;;-3.60;99.90;;;;;;4945606;28;21000;-81
2021/12/22 02:23:16;;;;;;;26.73;16.35;;;-3.00;99.90;;;;;;4977034;28;20046;-81
2021/12/22 02:25:51;;;;;;;24.77;15.40;;;-3.30;99.90;;;;;;4959702;28;20038;-81
2021/12/22 02:28:22;;;;;;;25.08;14.65;;;-3.70;99.90;;;;;;4945249;28;20403;-81
2021/12/22 02:30:48;;;;;;;25.50;14.95;;;-3.70;99.90;;;;;;4975976;28;20043;-81
2021/12/22 02:35:55;;;;;;;25.23;15.57;;;-3.70;99.90;;;;;;4976580;28;20134;-81
2021/12/22 02:38:21;;;;;;;23.83;14.88;;;-3.70;99.90;;;;;;4944710;28;20047;-81
2021/12/22 02:40:51;;;;;;;26.55;16.73;;;-3.80;99.90;;;;;;4975140;28;20054;-81
2021/12/22 02:43:24;;;;;;;28.75;17.40;;;-3.80;99.90;;;;;;4928439;28;20043;-81
2021/12/22 02:45:52;;;;;;;27.70;16.35;;;-3.80;99.90;;;;;;4977837;28;20054;-82
2021/12/22 02:48:18;;;;;;;24.65;15.38;;;-3.80;99.90;;;;;;4945041;28;20565;-82
2021/12/22 02:50:44;;;;;;;28.08;17.55;;;-3.90;99.90;;;;;;4976451;28;20046;-82
2021/12/22 02:53:15;;;;;;;29.52;17.45;;;-3.90;99.90;;;;;;4960603;28;20061;-82
2021/12/22 02:58:26;;;;;;;28.73;16.88;;;-3.80;99.90;;;;;;4977035;28;20054;-81
2021/12/22 03:01:27;;;;;;;28.83;17.58;;;-3.80;99.90;;;;;;4944376;28;20050;-81
2021/12/22 03:06:13;;;;;;;28.70;16.15;;;-3.90;99.90;;;;;;4960350;28;20553;-81
2021/12/22 03:08:39;;;;;;;28.42;16.95;;;-3.90;99.90;;;;;;4944701;28;20402;-81
2021/12/22 03:11:05;;;;;;;29.38;17.80;;;-4.00;99.90;;;;;;4944000;28;20039;-81
2021/12/22 03:13:31;;;;;;;30.20;17.08;;;-4.00;99.90;;;;;;4993244;28;20051;-81
2021/12/22 03:15:57;;;;;;;27.38;17.15;;;-4.00;99.90;;;;;;4975809;28;20086;-81
2021/12/22 03:18:24;;;;;;;27.92;17.00;;;-4.00;99.90;;;;;;4943847;28;20050;-81
2021/12/22 03:20:58;;;;;;;30.27;17.98;;;-4.00;99.90;;;;;;4944947;28;20894;-82
2021/12/22 03:23:24;;;;;;;28.60;17.05;;;-4.10;99.90;;;;;;4944587;28;20089;-82
2021/12/22 03:25:52;;;;;;;31.70;18.83;;;-4.10;99.90;;;;;;4943429;28;20070;-82
2021/12/22 03:28:18;;;;;;;30.98;18.67;;;-4.10;99.90;;;;;;4959431;28;20047;-82
2021/12/22 03:30:43;;;;;;;33.45;19.48;;;-4.20;99.90;;;;;;4975954;28;20102;-82
2021/12/22 03:33:09;;;;;;;29.60;16.77;;;-4.20;99.90;;;;;;4943521;28;20035;-82
2021/12/22 03:35:38;;;;;;;35.05;20.13;;;-4.20;99.90;;;;;;4959448;28;20047;-82
2021/12/22 03:38:04;;;;;;;33.97;19.17;;;-4.20;99.90;;;;;;4928348;28;20126;-82
2021/12/22 03:40:30;;;;;;;36.20;19.42;;;-4.20;99.90;;;;;;4958326;28;20047;-82
2021/12/22 03:42:57;;;;;;;30.40;18.77;;;-4.10;99.90;;;;;;4943557;28;20078;-82
2021/12/22 03:45:23;;;;;;;37.17;21.30;;;-3.50;99.90;;;;;;4927468;28;20043;-82
2021/12/22 03:47:49;;;;;;;33.92;18.13;;;-4.20;99.90;;;;;;4975406;28;20077;-81
2021/12/22 03:50:16;;;;;;;31.00;18.15;;;-4.20;99.90;;;;;;4927327;28;20039;-81
2021/12/22 03:52:42;;;;;;;36.22;19.83;;;-4.30;99.90;;;;;;4959334;28;20558;-81
2021/12/22 03:55:08;;;;;;;31.23;19.20;;;-4.30;99.90;;;;;;4958904;28;20133;-81
2021/12/22 03:57:34;;;;;;;37.30;20.55;;;-4.30;99.90;;;;;;4943243;28;20042;-81
2021/12/22 04:00:02;;;;;;;33.42;20.00;;;-4.30;99.90;;;;;;4959714;28;20082;-81
2021/12/22 04:02:28;;;;;;;31.35;18.70;;;-4.30;99.90;;;;;;4961393;28;20039;-81
2021/12/22 04:04:54;;;;;;;32.25;19.05;;;-4.30;99.90;;;;;;4923954;29;20384;-81
2021/12/22 04:07:20;;;;;;;35.67;19.42;;;-4.30;99.90;;;;;;4924042;29;20047;-81
2021/12/22 04:09:47;;;;;;;34.10;19.30;;;-4.30;99.90;;;;;;4924118;29;20051;-81
2021/12/22 04:12:12;;;;;;;35.22;19.50;;;-4.30;99.90;;;;;;4938955;29;20126;-81
2021/12/22 04:14:38;;;;;;;34.47;20.10;;;-4.30;99.90;;;;;;4955665;29;20082;-81
2021/12/22 04:17:04;;;;;;;32.78;19.67;;;-4.30;99.90;;;;;;4954589;28;20043;-81
2021/12/22 04:19:30;;;;;;;35.03;20.48;;;-4.30;99.90;;;;;;4923987;29;20438;-81
2021/12/22 04:21:56;;;;;;;40.85;20.80;;;-4.30;99.90;;;;;;4907316;29;20067;-81
2021/12/22 04:24:22;;;;;;;37.15;20.60;;;-4.30;99.90;;;;;;4923769;29;20048;-81
2021/12/22 04:26:51;;;;;;;39.15;21.75;;;-4.30;99.90;;;;;;4938716;29;20043;-81
2021/12/22 04:29:17;;;;;;;39.65;21.55;;;-4.30;99.90;;;;;;4955330;29;20043;-81
2021/12/22 04:31:43;;;;;;;36.58;21.60;;;-4.40;99.90;;;;;;4939176;29;20039;-81
2021/12/22 04:34:09;;;;;;;33.83;19.42;;;-4.40;99.90;;;;;;4918226;28;20142;-81
2021/12/22 04:36:36;;;;;;;35.90;20.17;;;-4.50;99.90;;;;;;4942285;28;20051;-81
2021/12/22 04:39:03;;;;;;;40.42;21.02;;;-4.50;99.90;;;;;;4942391;28;20133;-81
2021/12/22 04:41:29;;;;;;;35.70;19.08;;;-4.50;99.90;;;;;;4973325;28;20129;-81
2021/12/22 04:43:55;;;;;;;36.22;20.77;;;-4.50;99.90;;;;;;4974398;28;20129;-81
2021/12/22 04:46:21;;;;;;;36.75;20.50;;;-4.50;99.90;;;;;;4957864;28;20038;-81
2021/12/22 04:48:47;;;;;;;35.78;20.35;;;-4.50;99.90;;;;;;4958526;28;20042;-81
2021/12/22 04:51:23;;;;;;;35.95;19.77;;;-4.50;99.90;;;;;;4958149;28;20483;-81
2021/12/22 04:53:58;;;;;;;36.45;20.85;;;-4.50;99.90;;;;;;4974660;28;20482;-81
2021/12/22 04:56:24;;;;;;;35.10;20.02;;;-4.50;99.90;;;;;;4973220;28;20046;-81
2021/12/22 04:58:49;;;;;;;34.22;19.77;;;-4.50;99.90;;;;;;4957908;28;20042;-81
2021/12/22 05:01:15;;;;;;;35.72;20.55;;;-4.50;99.90;;;;;;4957539;28;20096;-81
2021/12/22 05:03:41;;;;;;;33.63;19.90;;;-4.50;99.90;;;;;;4974038;28;20101;-81
2021/12/22 05:06:07;;;;;;;37.63;20.00;;;-4.60;99.90;;;;;;4957627;28;20510;-81
2021/12/22 05:08:33;;;;;;;36.35;20.88;;;-4.60;99.90;;;;;;4958116;28;20398;-81
2021/12/22 05:10:59;;;;;;;37.70;20.17;;;-4.50;99.90;;;;;;4956811;28;20043;-81
2021/12/22 05:13:25;;;;;;;35.53;20.02;;;-4.50;99.90;;;;;;4957803;28;20038;-81
2021/12/22 05:15:52;;;;;;;38.78;20.60;;;-4.50;99.90;;;;;;4941345;28;20126;-81
2021/12/22 05:20:47;;;;;;;34.95;20.27;;;-4.50;99.90;;;;;;4956941;28;20067;-81
2021/12/22 05:23:13;;;;;;;37.03;19.52;;;-4.60;99.90;;;;;;4941380;28;20137;-81
2021/12/22 05:25:38;;;;;;;37.50;20.02;;;-4.60;99.90;;;;;;4972537;28;20173;-81
2021/12/22 05:28:04;;;;;;;37.33;20.45;;;-4.60;99.90;;;;;;4973810;28;20043;-81
2021/12/22 05:30:30;;;;;;;32.53;19.45;;;-4.60;99.90;;;;;;4957721;28;20043;-81
2021/12/22 05:32:56;;;;;;;35.88;19.65;;;-4.60;99.90;;;;;;4941807;28;20042;-81
2021/12/22 05:35:23;;;;;;;33.25;19.15;;;-4.60;99.90;;;;;;4973321;28;20051;-81
2021/12/22 05:37:49;;;;;;;33.38;19.67;;;-4.70;99.90;;;;;;4974324;28;20078;-81
2021/12/22 05:40:15;;;;;;;34.22;19.50;;;-4.70;99.90;;;;;;4940627;28;20043;-81
2021/12/22 05:42:42;;;;;;;33.38;19.83;;;-4.70;99.90;;;;;;4973394;28;20034;-81
2021/12/22 05:45:09;;;;;;;33.90;19.92;;;-4.70;99.90;;;;;;4956917;28;20050;-81
2021/12/22 05:47:36;;;;;;;35.42;19.63;;;-4.70;99.90;;;;;;4962695;28;20062;-81
2021/12/22 05:50:06;;;;;;;33.13;18.80;;;-4.70;99.90;;;;;;4956353;28;20522;-81
2021/12/22 05:52:32;;;;;;;33.90;19.60;;;-4.60;99.90;;;;;;4956060;28;20035;-82
2021/12/22 05:54:57;;;;;;;35.65;19.25;;;-4.60;99.90;;;;;;4958767;28;20461;-82
2021/12/22 05:57:23;;;;;;;32.65;19.10;;;-4.60;99.90;;;;;;4966889;29;20043;-85
2021/12/22 05:59:49;;;;;;;30.65;17.17;;;-4.60;99.90;;;;;;4930778;28;20038;-84
2021/12/22 06:02:14;;;;;;;33.13;19.05;;;-4.60;99.90;;;;;;4975462;28;20034;-84
2021/12/22 06:04:40;;;;;;;31.50;18.52;;;-4.60;99.90;;;;;;4959283;28;20380;-83
2021/12/22 06:07:06;;;;;;;32.22;18.40;;;-4.60;99.90;;;;;;4957367;28;20046;-82
2021/12/22 06:09:32;;;;;;;32.70;19.15;;;-4.60;99.90;;;;;;4958526;28;20504;-82
2021/12/22 06:11:58;;;;;;;30.92;18.48;;;-4.60;99.90;;;;;;4968167;28;20407;-82
2021/12/22 06:14:23;;;;;;;35.67;19.73;;;-4.60;99.90;;;;;;4941439;28;20454;-82
2021/12/22 06:16:50;;;;;;;32.75;18.90;;;-4.60;99.90;;;;;;4938938;29;20035;-83
2021/12/22 06:19:16;;;;;;;33.90;19.13;;;-4.60;99.90;;;;;;4907079;29;20051;-83
2021/12/22 06:21:42;;;;;;;35.63;19.98;;;-4.60;99.90;;;;;;4941504;29;20582;-85
2021/12/22 06:24:08;;;;;;;33.83;19.55;;;-4.60;99.90;;;;;;4941561;29;20051;-85
2021/12/22 06:26:34;;;;;;;34.17;19.52;;;-4.60;99.90;;;;;;4940015;29;20059;-85
2021/12/22 06:29:00;;;;;;;30.50;17.70;;;-4.60;99.90;;;;;;4910591;29;20128;-85
2021/12/22 06:31:26;;;;;;;33.42;18.92;;;-3.70;99.90;;;;;;4940428;28;20506;-84
2021/12/22 06:33:52;;;;;;;34.47;19.40;;;-4.60;99.90;;;;;;4971318;28;20050;-83
2021/12/22 06:36:18;;;;;;;34.67;19.25;;;-4.60;99.90;;;;;;4956542;28;20102;-83
2021/12/22 06:38:44;;;;;;;27.88;17.75;;;-4.60;99.90;;;;;;4955178;28;20434;-84
2021/12/22 06:41:10;;;;;;;30.70;18.08;;;-4.60;99.90;;;;;;4953943;28;20034;-84
2021/12/22 06:43:36;;;;;;;32.22;18.88;;;-4.60;99.90;;;;;;4928827;28;20211;-85
2021/12/22 06:46:01;;;;;;;32.88;18.42;;;-4.60;99.90;;;;;;4967789;28;20039;-86
2021/12/22 06:48:27;;;;;;;28.48;17.58;;;-4.60;99.90;;;;;;4947687;28;20073;-86
2021/12/22 06:50:53;;;;;;;32.45;18.80;;;-3.80;99.90;;;;;;4945167;28;20043;-86
2021/12/22 06:53:19;;;;;;;33.15;18.77;;;-4.50;99.90;;;;;;4932357;28;20051;-85
2021/12/22 06:55:45;;;;;;;30.35;17.55;;;-3.60;99.90;;;;;;4958363;28;20078;-84
2021/12/22 06:58:11;;;;;;;29.98;17.52;;;-4.70;99.90;;;;;;4960505;28;20501;-85
2021/12/22 07:00:42;;;;;;;33.33;17.55;;;-4.30;99.90;;;;;;4941375;28;20035;-85
2021/12/22 07:03:12;;;;;;;28.98;16.90;;;-4.70;99.90;;;;;;4994685;28;20038;-85
2021/12/22 07:05:37;;;;;;;29.25;17.25;;;-4.60;99.90;;;;;;4952317;28;20035;-84
2021/12/22 07:08:03;;;;;;;30.50;17.33;;;-4.60;99.90;;;;;;4953394;28;20178;-82
2021/12/22 07:10:29;;;;;;;29.30;17.88;;;-4.60;99.90;;;;;;4923581;28;20035;-83
2021/12/22 07:12:55;;;;;;;30.67;18.00;;;-4.60;99.90;;;;;;4924788;28;20031;-82
2021/12/22 07:15:21;;;;;;;30.67;17.83;;;-4.60;99.90;;;;;;4954637;28;20043;-81
2021/12/22 07:17:49;;;;;;;31.35;18.08;;;-4.50;99.90;;;;;;4945541;28;20041;-81
2021/12/22 07:20:15;;;;;;;32.78;19.30;;;-4.50;99.90;;;;;;4960377;28;20031;-82
2021/12/22 07:22:41;;;;;;;30.85;17.80;;;-4.50;99.90;;;;;;4972279;28;20564;-82
2021/12/22 07:25:09;;;;;;;35.60;19.05;;;-4.50;99.90;;;;;;4893864;28;20070;-81
2021/12/22 07:27:34;;;;;;;32.10;18.88;;;-4.50;99.90;;;;;;4957011;28;20047;-82
2021/12/22 07:30:01;;;;;;;35.28;19.10;;;-4.50;99.90;;;;;;4939657;28;20038;-82
2021/12/22 07:32:26;;;;;;;34.55;18.13;;;-4.50;99.90;;;;;;4950626;28;20046;-82
2021/12/22 07:35:03;;;;;;;31.33;18.10;;;-4.50;99.90;;;;;;4925314;28;20037;-82
2021/12/22 07:37:38;;;;;;;33.00;17.38;;;-4.60;99.90;;;;;;4947516;28;20506;-82
2021/12/22 07:40:07;;;;;;;31.35;17.83;;;-4.60;99.90;;;;;;4964463;28;20049;-82
2021/12/22 07:42:33;;;;;;;30.83;18.08;;;-4.60;99.90;;;;;;4976382;28;20101;-82
2021/12/22 07:44:59;;;;;;;34.47;18.65;;;-4.60;99.90;;;;;;4966562;28;20054;-82
2021/12/22 07:47:24;;;;;;;31.70;18.30;;;-4.60;99.90;;;;;;4980030;28;20042;-82
2021/12/22 07:49:50;;;;;;;30.70;16.83;;;-4.60;99.90;;;;;;4972852;28;20453;-82
2021/12/22 07:52:16;;;;;;;29.50;17.15;;;-3.80;99.90;;;;;;4947142;28;20051;-81
2021/12/22 07:54:42;;;;;;;29.67;17.42;;;-4.60;99.90;;;;;;4979717;28;20094;-81
2021/12/22 07:57:08;;;;;;;28.40;16.80;;;-4.60;99.90;;;;;;4961330;28;20035;-81
2021/12/22 07:59:34;;;;;;;32.58;18.92;;;-4.60;99.90;;;;;;4978337;28;20019;-80
2021/12/22 08:02:00;;;;;;;33.42;19.10;;;-4.60;99.90;;;;;;4948792;28;20450;-80
2021/12/22 08:04:26;;;;;;;32.67;19.02;;;-4.50;99.90;;;;;;4958024;28;20050;-86
2021/12/22 08:06:53;;;;;;;33.03;18.05;;;-4.50;99.90;;;;;;4980467;28;20035;-85
2021/12/22 08:09:25;;;;;;;35.72;19.50;;;-3.70;99.90;;;;;;4979679;28;20109;-84
2021/12/22 08:11:53;;;;;;;;;;;-4.40;99.90;;;;;;4964690;28;20051;-85
2021/12/22 08:14:19;;;;;;;34.90;18.63;;;-4.30;99.90;;;;;;4956456;28;19917;-86
2021/12/22 08:16:45;;;;;;;36.03;19.50;;;-3.20;99.90;;;;;;4946998;28;20495;-86
2021/12/22 08:19:10;;;;;;;38.72;21.77;;;-4.10;99.90;;;;;;4963692;28;20478;-85
2021/12/22 08:21:38;;;;;;;37.17;20.85;;;-4.10;99.90;;;;;;4944837;28;20199;-85
2021/12/22 08:24:04;;;;;;;38.50;20.88;;;-4.00;99.90;;;;;;4970094;28;20070;-85
2021/12/22 08:26:31;;;;;;;42.17;21.38;;;-3.90;99.90;;;;;;4957639;28;20034;-86
2021/12/22 08:28:57;;;;;;;40.17;22.23;;;-2.70;99.90;;;;;;4967655;28;20502;-85
2021/12/22 08:31:22;;;;;;;41.05;23.38;;;-3.60;99.90;;;;;;4960600;28;20128;-86
2021/12/22 08:33:48;;;;;;;39.67;22.50;;;-3.50;99.90;;;;;;4969094;28;20082;-86
2021/12/22 08:39:05;;;;;;;36.58;20.73;;;-3.20;99.90;;;;;;4958502;28;20090;-86
2021/12/22 08:41:33;;;;;;;39.45;20.83;;;-3.20;99.90;;;;;;4930230;28;20046;-86
2021/12/22 08:44:05;;;;;;;36.00;20.98;;;-3.00;99.90;;;;;;4944161;28;20130;-86
2021/12/22 08:46:32;;;;;;;36.05;20.50;;;-3.00;99.90;;;;;;4962778;28;20089;-87
2021/12/22 08:48:58;;;;;;;37.55;21.25;;;-3.00;99.90;;;;;;4964816;28;20041;-87
2021/12/22 08:51:24;;;;;;;37.25;21.77;;;-2.90;99.90;;;;;;4965806;28;20038;-87
2021/12/22 08:53:53;;;;;;;35.58;20.13;;;-1.90;99.90;;;;;;4942760;28;20051;-87
2021/12/22 08:56:19;;;;;;;39.15;22.33;;;-2.50;99.90;;;;;;4943344;28;20043;-87
2021/12/22 08:58:44;;;;;;;37.58;22.17;;;-1.90;99.90;;;;;;4961142;28;20058;-88
2021/12/22 09:01:10;;;;;;;41.00;22.38;;;-2.70;99.90;;;;;;4970504;28;20039;-86
2021/12/22 09:03:36;;;;;;;37.25;21.95;;;-1.80;99.90;;;;;;4929447;28;20047;-88
2021/12/22 09:06:02;;;;;;;38.20;21.63;;;-2.60;99.90;;;;;;4926746;28;20495;-88
2021/12/22 09:08:28;;;;;;;36.40;20.65;;;-2.60;99.90;;;;;;4936550;28;20053;-88
2021/12/22 09:10:56;;;;;;;34.78;20.45;;;-2.50;99.90;;;;;;4958686;28;20364;-86
2021/12/22 09:13:23;;;;;;;36.90;20.73;;;-2.50;99.90;;;;;;4941920;28;20070;-88
2021/12/22 09:15:49;;;;;;;32.88;20.13;;;-1.30;99.90;;;;;;4938072;28;20058;-87
2021/12/22 09:18:16;;;;;;;34.03;20.95;;;-2.40;99.90;;;;;;4951424;28;20038;-86
2021/12/22 09:20:42;;;;;;;34.85;21.17;;;-2.40;99.90;;;;;;4940504;28;20387;-86
2021/12/22 09:23:07;;;;;;;40.25;22.95;;;-2.30;99.90;;;;;;4940189;28;20058;-85
2021/12/22 09:25:33;;;;;;;38.47;23.42;;;-2.30;99.90;;;;;;4940739;28;20049;-85
2021/12/22 09:28:00;;;;;;;35.80;21.10;;;-2.30;99.90;;;;;;4960993;28;20509;-86
2021/12/22 09:30:27;;;;;;;33.50;20.70;;;-1.80;99.90;;;;;;4956091;28;20556;-86
2021/12/22 09:32:54;;;;;;;31.05;20.02;;;-2.20;99.90;;;;;;4961911;28;20402;-86
2021/12/22 09:35:21;;;;;;;30.23;18.67;;;-2.10;99.90;;;;;;4943670;28;20039;-86
2021/12/22 09:37:47;;;;;;;31.92;19.80;;;-2.10;99.90;;;;;;4933395;28;20392;-86
2021/12/22 09:40:13;;;;;;;32.85;19.95;;;-1.50;99.90;;;;;;4939403;28;20054;-86
2021/12/22 09:42:38;;;;;;;34.08;19.92;;;-2.00;99.90;;;;;;4944517;28;20187;-86
2021/12/22 09:45:04;;;;;;;34.08;20.27;;;-2.00;99.90;;;;;;4946128;28;20043;-87
2021/12/22 09:47:41;;;;;;;34.55;19.90;;;-2.00;99.90;;;;;;4939953;28;20043;-86
2021/12/22 09:50:10;;;;;;;34.78;21.13;;;-2.00;99.90;;;;;;4956706;28;20158;-86
2021/12/22 09:52:38;;;;;;;36.75;20.80;;;-1.90;99.90;;;;;;4943782;28;20507;-87
2021/12/22 09:55:07;;;;;;;36.33;20.38;;;-0.90;99.90;;;;;;4959639;28;20065;-87
2021/12/22 09:57:34;;;;;;;34.15;19.88;;;-1.80;99.90;;;;;;4961258;28;20038;-87
2021/12/22 10:00:02;;;;;;;34.30;19.10;;;-1.70;99.90;;;;;;4941955;28;20043;-87
2021/12/22 10:02:29;;;;;;;34.20;19.02;;;-1.60;99.90;;;;;;4959362;28;20093;-87
2021/12/22 10:04:59;;;;;;;34.95;17.30;;;-1.60;99.90;;;;;;4942274;28;20039;-84
2021/12/22 10:07:29;;;;;;;37.17;18.70;;;-1.50;99.90;;;;;;4959104;28;20043;-86
2021/12/22 10:10:05;;;;;;;28.00;16.60;;;-1.40;99.90;;;;;;4943672;28;20039;-86
2021/12/22 10:12:31;;;;;;;35.38;17.05;;;-1.40;99.90;;;;;;4954429;28;20372;-85
2021/12/22 10:15:03;;;;;;;29.88;16.17;;;-1.40;99.90;;;;;;4961169;28;20054;-85
2021/12/22 10:17:30;;;;;;;;;;;-1.40;99.90;;;;;;4965565;28;20130;-87
2021/12/22 10:19:59;;;;;;;26.98;14.27;;;-1.40;99.90;;;;;;4961058;28;19945;-88
2021/12/22 10:22:37;;;;;;;32.85;16.95;;;-1.40;99.90;;;;;;4955036;28;20395;-87
2021/12/22 10:25:16;;;;;;;32.28;16.52;;;-1.30;99.90;;;;;;4954560;28;20077;-87
2021/12/22 10:27:56;;;;;;;33.08;18.45;;;-1.30;99.90;;;;;;4962479;28;20491;-84
2021/12/22 10:30:23;;;;;;;31.05;17.95;;;-1.20;99.90;;;;;;4967527;28;20093;-87
2021/12/22 10:33:02;;;;;;;35.63;18.17;;;-1.10;99.90;;;;;;4963736;28;20407;-87
2021/12/22 10:35:33;;;;;;;34.67;18.25;;;0.00;99.90;;;;;;4960039;28;20378;-86
2021/12/22 10:38:01;;;;;;;32.65;17.52;;;-1.00;99.90;;;;;;4981745;28;20078;-86
2021/12/22 10:40:48;;;;;;;32.85;17.92;;;-0.60;99.90;;;;;;4941703;28;20526;-87
2021/12/22 10:43:21;;;;;;;32.78;18.35;;;-0.80;99.90;;;;;;4963470;28;20039;-86
2021/12/22 10:45:50;;;;;;;;;;;-0.80;99.90;;;;;;4948871;28;20106;-86
2021/12/22 10:51:08;;;;;;;31.45;17.35;;;-0.60;99.90;;;;;;4963526;28;20051;-85
2021/12/22 10:53:43;;;;;;;31.70;17.65;;;-0.40;99.90;;;;;;4960776;28;20057;-85
2021/12/22 10:56:08;;;;;;;31.27;17.33;;;-0.50;99.90;;;;;;4947647;28;20042;-86
2021/12/22 10:58:34;;;;;;;33.70;18.52;;;0.00;99.90;;;;;;4949448;28;20039;-87
2021/12/22 11:01:00;;;;;;;33.13;17.83;;;-0.20;99.90;;;;;;4951529;28;20097;-88
2021/12/22 11:03:36;;;;;;;32.00;17.83;;;0.60;99.90;;;;;;4967018;28;20572;-86
2021/12/22 11:06:31;;;;;;;31.15;16.75;;;0.70;99.90;;;;;;4941120;28;20086;-85
2021/12/22 11:09:13;;;;;;;29.25;17.23;;;-0.50;99.90;;;;;;4944412;28;20514;-85
2021/12/22 11:11:40;;;;;;;26.70;16.15;;;-0.50;99.90;;;;;;4939123;28;20039;-86
2021/12/22 11:14:14;;;;;;;29.35;17.42;;;0.30;99.90;;;;;;4944326;28;20046;-85
2021/12/22 11:17:00;;;;;;;27.88;16.40;;;-0.40;99.90;;;;;;4962925;28;20043;-86
2021/12/22 11:19:35;;;;;;;28.38;16.33;;;-0.30;99.90;;;;;;4950749;28;20053;-85
2021/12/22 11:22:13;;;;;;;28.27;15.85;;;-0.30;99.90;;;;;;4983628;28;20137;-85
2021/12/22 11:24:51;;;;;;;28.63;16.17;;;-0.20;99.90;;;;;;4944856;28;20074;-85
2021/12/22 11:27:27;;;;;;;28.20;16.00;;;0.10;99.90;;;;;;4973933;28;20038;-85
2021/12/22 11:29:56;;;;;;;26.08;15.35;;;-0.20;99.90;;;;;;4943659;28;20050;-85
2021/12/22 11:32:27;;;;;;;27.60;15.38;;;-0.10;99.90;;;;;;4962621;28;20050;-85
2021/12/22 11:34:57;;;;;;;25.65;15.13;;;1.00;99.90;;;;;;4978997;28;20042;-85
2021/12/22 11:37:25;;;;;;;23.85;14.55;;;0.70;99.90;;;;;;4934829;28;20387;-86
2021/12/22 11:39:52;;;;;;;23.90;14.40;;;0.60;99.90;;;;;;4944659;28;20047;-86
2021/12/22 11:42:21;;;;;;;23.98;15.07;;;0.00;99.90;;;;;;4944122;28;20039;-85
2021/12/22 11:44:52;;;;;;;23.88;15.07;;;0.00;99.90;;;;;;4961380;28;20494;-85
2021/12/22 11:47:19;;;;;;;26.48;14.30;;;0.00;99.90;;;;;;4959612;28;20043;-85
2021/12/22 11:50:05;;;;;;;24.67;14.88;;;0.00;99.90;;;;;;4926477;28;20042;-86
2021/12/22 11:52:39;;;;;;;26.75;15.43;;;0.00;99.90;;;;;;4945566;28;20030;-86
2021/12/22 11:55:20;;;;;;;25.05;14.15;;;0.00;99.90;;;;;;4957592;28;20057;-86
2021/12/22 11:57:48;;;;;;;24.50;14.88;;;0.10;99.90;;;;;;4960709;28;20038;-85
2021/12/22 12:00:28;;;;;;;25.08;14.15;;;0.10;99.90;;;;;;4957582;28;20038;-85
2021/12/22 12:02:56;;;;;;;25.70;14.38;;;0.00;99.90;;;;;;4961841;28;20047;-85
2021/12/22 12:05:30;;;;;;;26.02;15.75;;;0.10;99.90;;;;;;4943686;28;20038;-86
2021/12/22 12:08:02;;;;;;;23.42;13.95;;;0.10;99.90;;;;;;4941430;28;21731;-86
2021/12/22 12:10:46;;;;;;;23.88;14.68;;;0.00;99.90;;;;;;4955513;28;20078;-86
2021/12/22 12:13:33;;;;;;;25.50;15.00;;;0.00;99.90;;;;;;4959203;28;20182;-86
2021/12/22 12:22:12;;;;;;;26.85;14.20;;;0.10;99.90;;;;;;4961112;28;20051;-86
2021/12/22 12:24:41;;;;;;;25.52;14.65;;;0.00;99.90;;;;;;4961886;28;20051;-86
2021/12/22 12:27:28;;;;;;;22.88;13.73;;;0.10;99.90;;;;;;4941880;28;20047;-86
2021/12/22 12:29:57;;;;;;;22.92;14.35;;;0.10;99.90;;;;;;4944697;28;20034;-85
2021/12/22 12:32:41;;;;;;;23.70;15.50;;;0.10;99.90;;;;;;4958668;28;20039;-86
2021/12/22 12:35:26;;;;;;;23.30;14.55;;;0.00;99.90;;;;;;4942279;28;20596;-84
2021/12/22 12:38:05;;;;;;;25.63;14.82;;;0.00;99.90;;;;;;4942036;28;20035;-85
2021/12/22 12:41:11;;;;;;;23.67;14.85;;;0.10;99.90;;;;;;4972836;28;20375;-85
2021/12/22 12:43:40;;;;;;;24.05;15.57;;;0.10;99.90;;;;;;4956773;28;20030;-86
2021/12/22 12:46:24;;;;;;;24.38;14.32;;;0.10;99.90;;;;;;4940048;28;20089;-85
2021/12/22 12:49:02;;;;;;;22.50;13.13;;;0.20;99.90;;;;;;4958476;28;20045;-85
2021/12/22 12:51:41;;;;;;;22.90;13.60;;;0.20;99.90;;;;;;4954362;28;20066;-84
2021/12/22 12:54:21;;;;;;;24.35;14.57;;;0.20;99.90;;;;;;4941576;28;20378;-85
2021/12/22 12:57:01;;;;;;;25.05;15.05;;;0.30;99.90;;;;;;4942064;28;20409;-86
2021/12/22 12:59:39;;;;;;;22.00;13.95;;;0.20;99.90;;;;;;4961450;28;20089;-85
2021/12/22 13:02:26;;;;;;;22.98;14.43;;;0.30;99.90;;;;;;4944020;28;20065;-86
2021/12/22 13:05:08;;;;;;;27.50;15.13;;;0.40;99.90;;;;;;4941151;28;20495;-87